createdAt,value
2022-09-01T00:01:54.016Z,9.20
2022-09-01T00:04:47.287Z,9.37
2022-09-01T00:07:37.021Z,9.50
2022-09-01T00:10:27.926Z,9.60
2022-09-01T00:13:17.812Z,9.40
2022-09-01T00:16:07.888Z,9.30
2022-09-01T00:18:57.449Z,9.37
2022-09-01T00:21:47.827Z,9.67
2022-09-01T00:24:37.631Z,9.30
2022-09-01T00:27:30.866Z,9.37
2022-09-01T00:30:22.171Z,9.67
2022-09-01T00:33:11.681Z,9.20
2022-09-01T00:36:01.625Z,9.27
2022-09-01T00:38:52.608Z,9.40
2022-09-01T00:41:44.880Z,9.80
2022-09-01T00:44:36.509Z,9.97
2022-09-01T00:47:28.754Z,10.00
2022-09-01T00:50:20.916Z,9.70
2022-09-01T00:53:11.785Z,9.97
2022-09-01T00:56:01.390Z,9.80
2022-09-01T00:58:52.001Z,9.90
2022-09-01T01:01:42.810Z,9.80
2022-09-01T01:04:32.281Z,9.47
2022-09-01T01:07:23.697Z,9.73
2022-09-01T01:10:15.882Z,9.33
2022-09-01T01:13:11.229Z,9.50
2022-09-01T01:16:00.845Z,9.30
2022-09-01T01:18:51.896Z,9.40
2022-09-01T01:21:59.661Z,9.30
2022-09-01T01:24:50.422Z,9.60
2022-09-01T01:27:43.194Z,9.10
2022-09-01T01:30:37.076Z,9.40
2022-09-01T01:33:32.881Z,9.57
2022-09-01T01:36:32.119Z,9.27
2022-09-01T01:39:26.920Z,9.20
2022-09-01T01:42:18.062Z,9.30
2022-09-01T01:45:12.688Z,9.43
2022-09-01T01:48:06.080Z,9.47
2022-09-01T01:50:59.657Z,9.27
2022-09-01T01:53:52.797Z,9.10
2022-09-01T01:56:42.533Z,9.50
2022-09-01T01:59:33.929Z,9.30
2022-09-01T02:02:23.387Z,9.30
2022-09-01T02:05:13.003Z,9.17
2022-09-01T02:08:07.470Z,9.50
2022-09-01T02:11:00.226Z,9.50
2022-09-01T02:13:49.809Z,9.50
2022-09-01T02:16:41.863Z,9.53
2022-09-01T02:19:31.401Z,9.50
2022-09-01T02:22:21.772Z,9.60
2022-09-01T02:25:12.096Z,9.57
2022-09-01T02:28:03.782Z,9.73
2022-09-01T02:30:55.530Z,9.40
2022-09-01T02:33:47.135Z,9.50
2022-09-01T02:36:41.083Z,9.90
2022-09-01T02:39:33.797Z,9.40
2022-09-01T02:42:27.585Z,9.67
2022-09-01T02:45:17.957Z,9.53
2022-09-01T02:48:10.483Z,10.10
2022-09-01T02:51:03.072Z,9.90
2022-09-01T02:53:53.383Z,9.90
2022-09-01T02:56:42.771Z,9.90
2022-09-01T02:59:34.726Z,9.70
2022-09-01T03:02:28.951Z,10.13
2022-09-01T03:05:25.292Z,10.23
2022-09-01T03:08:17.302Z,9.90
2022-09-01T03:11:12.999Z,10.00
2022-09-01T03:14:03.353Z,10.30
2022-09-01T03:16:53.352Z,10.07
2022-09-01T03:19:44.579Z,9.83
2022-09-01T03:22:34.869Z,10.20
2022-09-01T03:25:28.840Z,9.53
2022-09-01T03:28:18.644Z,9.70
2022-09-01T03:31:09.990Z,9.70
2022-09-01T03:34:00.796Z,10.07
2022-09-01T03:36:54.460Z,9.77
2022-09-01T03:39:51.007Z,9.97
2022-09-01T03:42:47.370Z,9.80
2022-09-01T03:45:38.463Z,9.90
2022-09-01T03:48:31.702Z,9.90
2022-09-01T03:51:23.325Z,10.33
2022-09-01T03:54:12.897Z,10.50
2022-09-01T03:57:02.299Z,10.60
2022-09-01T03:59:55.270Z,10.87
2022-09-01T04:02:45.248Z,10.80
2022-09-01T04:05:44.608Z,10.90
2022-09-01T04:08:35.048Z,10.97
2022-09-01T04:11:25.324Z,10.87
2022-09-01T04:14:16.218Z,11.03
2022-09-01T04:17:29.926Z,10.23
2022-09-01T04:20:21.980Z,10.27
2022-09-01T04:23:11.372Z,10.17
2022-09-01T04:26:09.035Z,10.13
2022-09-01T04:28:59.449Z,9.70
2022-09-01T04:31:53.657Z,9.57
2022-09-01T04:34:44.554Z,9.70
2022-09-01T04:37:37.489Z,9.87
2022-09-01T04:40:27.495Z,9.87
2022-09-01T04:43:17.776Z,10.13
2022-09-01T04:46:07.370Z,9.43
2022-09-01T04:48:58.596Z,9.70
2022-09-01T04:51:53.867Z,9.80
2022-09-01T04:54:45.337Z,9.77
2022-09-01T04:57:35.315Z,9.40
2022-09-01T05:00:27.935Z,9.80
2022-09-01T05:03:21.535Z,9.50
2022-09-01T05:06:34.626Z,9.73
2022-09-01T05:09:26.237Z,9.87
2022-09-01T05:12:27.880Z,9.43
2022-09-01T05:15:18.143Z,9.57
2022-09-01T05:18:10.150Z,9.73
2022-09-01T05:20:59.948Z,9.70
2022-09-01T05:23:51.928Z,9.40
2022-09-01T05:26:47.484Z,9.57
2022-09-01T05:29:38.045Z,9.50
2022-09-01T05:32:28.907Z,10.00
2022-09-01T05:35:18.795Z,9.70
2022-09-01T05:38:14.020Z,9.60
2022-09-01T05:41:08.704Z,9.40
2022-09-01T05:44:01.008Z,9.87
2022-09-01T05:46:53.632Z,10.13
2022-09-01T05:49:44.709Z,9.37
2022-09-01T05:52:36.275Z,9.60
2022-09-01T05:55:27.750Z,9.40
2022-09-01T05:58:20.275Z,9.40
2022-09-01T06:01:13.451Z,9.70
2022-09-01T06:04:04.881Z,9.50
2022-09-01T06:07:07.001Z,9.30
2022-09-01T06:09:59.786Z,9.30
2022-09-01T06:12:50.517Z,9.40
2022-09-01T06:15:44.733Z,9.50
2022-09-01T06:18:37.345Z,9.70
2022-09-01T06:21:29.092Z,9.27
2022-09-01T06:24:18.767Z,9.77
2022-09-01T06:27:09.899Z,9.60
2022-09-01T06:29:59.675Z,9.70
2022-09-01T06:32:49.773Z,9.70
2022-09-01T06:35:42.110Z,9.73
2022-09-01T06:38:31.872Z,9.10
2022-09-01T06:41:23.666Z,9.43
2022-09-01T06:44:14.645Z,9.20
2022-09-01T06:47:10.770Z,9.50
2022-09-01T06:50:01.913Z,9.00
2022-09-01T06:56:13.690Z,9.00
2022-09-01T06:59:05.653Z,9.07
2022-09-01T07:02:04.862Z,8.90
2022-09-01T07:08:31.840Z,8.47
2022-09-01T07:17:59.242Z,8.70
2022-09-01T07:21:36.728Z,8.10
2022-09-01T07:27:35.906Z,8.13
2022-09-01T07:30:31.976Z,8.03
2022-09-01T07:39:48.578Z,8.38
2022-09-01T07:42:30.800Z,8.27
2022-09-01T07:42:59.008Z,8.50
2022-09-01T07:49:29.805Z,8.38
2022-09-01T07:52:22.603Z,8.30
2022-09-01T07:55:19.502Z,8.50
2022-09-01T07:58:09.548Z,8.38
2022-09-01T08:01:00.139Z,8.20
2022-09-01T08:03:53.407Z,8.20
2022-09-01T08:06:43.578Z,7.85
2022-09-01T08:09:37.384Z,8.00
2022-09-01T08:12:31.077Z,8.25
2022-09-01T08:18:48.129Z,8.18
2022-09-01T08:21:46.488Z,7.90
2022-09-01T08:24:48.066Z,8.15
2022-09-01T08:27:39.920Z,7.90
2022-09-01T08:30:30.077Z,8.10
2022-09-01T08:33:20.264Z,7.88
2022-09-01T08:36:13.294Z,8.50
2022-09-01T08:39:02.677Z,8.45
2022-09-01T08:42:02.058Z,8.60
2022-09-01T08:45:02.922Z,8.40
2022-09-01T08:48:29.115Z,8.10
2022-09-01T08:51:19.983Z,7.60
2022-09-01T08:54:32.077Z,7.82
2022-09-01T08:57:27.878Z,8.20
2022-09-01T09:00:45.961Z,7.78
2022-09-01T09:03:44.854Z,8.00
2022-09-01T09:06:43.933Z,8.18
2022-09-01T09:09:42.266Z,8.20
2022-09-01T09:12:51.511Z,8.48
2022-09-01T09:16:07.253Z,8.20
2022-09-01T09:19:02.844Z,7.90
2022-09-01T09:21:55.213Z,8.93
2022-09-01T09:24:52.330Z,8.20
2022-09-01T09:27:44.362Z,7.85
2022-09-01T09:30:33.924Z,8.00
2022-09-01T09:33:51.603Z,7.80
2022-09-01T09:36:42.513Z,7.77
2022-09-01T09:39:31.862Z,8.03
2022-09-01T09:42:21.691Z,8.07
2022-09-01T09:45:26.675Z,8.03
2022-09-01T09:48:31.531Z,8.30
2022-09-01T09:51:23.726Z,8.30
2022-09-01T09:54:17.709Z,8.30
2022-09-01T09:57:14.461Z,9.53
2022-09-01T10:00:11.369Z,8.17
2022-09-01T10:03:10.219Z,8.60
2022-09-01T10:06:00.633Z,7.90
2022-09-01T10:08:52.034Z,7.90
2022-09-01T10:11:43.643Z,8.03
2022-09-01T10:14:52.340Z,8.17
2022-09-01T10:17:45.974Z,7.97
2022-09-01T10:20:39.981Z,8.20
2022-09-01T10:23:32.419Z,7.83
2022-09-01T10:26:28.226Z,8.00
2022-09-01T10:29:22.871Z,7.93
2022-09-01T10:32:31.826Z,8.30
2022-09-01T10:35:30.840Z,7.80
2022-09-01T10:38:25.090Z,7.87
2022-09-01T10:42:00.766Z,8.10
2022-09-01T10:44:58.910Z,8.17
2022-09-01T10:47:48.818Z,7.70
2022-09-01T10:50:38.672Z,7.90
2022-09-01T10:53:42.739Z,7.63
2022-09-01T10:56:44.684Z,8.05
2022-09-01T10:59:44.408Z,7.85
2022-09-01T11:03:31.481Z,7.68
2022-09-01T11:07:17.872Z,7.60
2022-09-01T11:10:34.435Z,7.55
2022-09-01T11:13:49.578Z,7.35
2022-09-01T11:16:49.313Z,7.30
2022-09-01T11:19:44.586Z,7.78
2022-09-01T11:22:40.289Z,7.73
2022-09-01T11:25:43.902Z,8.37
2022-09-01T11:28:44.473Z,8.43
2022-09-01T11:31:43.405Z,8.27
2022-09-01T11:34:32.982Z,8.17
2022-09-01T11:37:27.805Z,8.40
2022-09-01T11:40:25.687Z,8.40
2022-09-01T11:43:19.836Z,8.53
2022-09-01T11:46:17.928Z,8.10
2022-09-01T11:49:28.342Z,8.60
2022-09-01T11:52:20.186Z,8.20
2022-09-01T11:55:11.621Z,8.50
2022-09-01T11:58:03.372Z,8.57
2022-09-01T12:00:52.749Z,7.93
2022-09-01T12:03:43.064Z,8.40
2022-09-01T12:06:32.616Z,8.50
2022-09-01T12:09:22.074Z,8.10
2022-09-01T12:12:33.073Z,8.57
2022-09-01T12:15:26.627Z,8.47
2022-09-01T12:18:22.904Z,8.73
2022-09-01T12:21:28.543Z,8.70
2022-09-01T12:24:21.571Z,8.83
2022-09-01T12:27:11.074Z,8.63
2022-09-01T12:30:00.487Z,8.43
2022-09-01T12:32:51.946Z,8.30
2022-09-01T12:35:42.106Z,8.30
2022-09-01T12:38:32.466Z,8.27
2022-09-01T12:41:40.108Z,8.27
2022-09-01T12:44:34.440Z,8.50
2022-09-01T12:47:52.133Z,8.23
2022-09-01T12:50:47.002Z,8.30
2022-09-01T12:53:37.122Z,8.33
2022-09-01T12:56:32.316Z,8.40
2022-09-01T12:59:35.808Z,8.00
2022-09-01T13:02:36.834Z,8.50
2022-09-01T13:05:36.159Z,8.20
2022-09-01T13:08:33.015Z,8.40
2022-09-01T13:11:22.473Z,8.30
2022-09-01T13:14:12.846Z,8.40
2022-09-01T13:17:02.328Z,8.10
2022-09-01T13:19:51.753Z,8.20
2022-09-01T13:22:44.672Z,8.10
2022-09-01T13:25:34.012Z,8.43
2022-09-01T13:31:35.703Z,8.40
2022-09-01T13:34:25.860Z,8.40
2022-09-01T13:37:15.353Z,8.40
2022-09-01T13:40:07.916Z,8.47
2022-09-01T13:42:57.381Z,8.60
2022-09-01T13:45:48.311Z,8.47
2022-09-01T13:51:52.986Z,8.50
2022-09-01T13:54:44.290Z,8.20
2022-09-01T13:57:36.188Z,8.77
2022-09-01T14:00:30.336Z,9.27
2022-09-01T14:03:23.377Z,8.50
2022-09-01T14:06:12.781Z,8.60
2022-09-01T14:09:02.211Z,8.40
2022-09-01T14:11:54.666Z,8.50
2022-09-01T14:17:58.092Z,8.30
2022-09-01T14:20:50.967Z,8.33
2022-09-01T14:23:40.450Z,8.43
2022-09-01T14:26:29.779Z,8.50
2022-09-01T14:29:19.155Z,8.47
2022-09-01T14:32:09.923Z,8.50
2022-09-01T14:34:59.357Z,8.60
2022-09-01T14:37:48.753Z,8.70
2022-09-01T14:40:39.404Z,8.50
2022-09-01T14:43:31.801Z,8.90
2022-09-01T14:46:23.686Z,8.73
2022-09-01T14:49:21.594Z,8.60
2022-09-01T14:52:13.475Z,8.73
2022-09-01T14:55:02.885Z,8.93
2022-09-01T14:57:52.901Z,8.50
2022-09-01T15:00:42.960Z,8.60
2022-09-01T15:03:32.410Z,8.73
2022-09-01T15:06:24.365Z,8.40
2022-09-01T15:09:18.497Z,8.40
2022-09-01T15:12:09.556Z,8.57
2022-09-01T15:14:59.513Z,8.90
2022-09-01T15:17:48.864Z,9.27
2022-09-01T15:20:48.825Z,9.00
2022-09-01T15:23:39.615Z,8.60
2022-09-01T15:26:29.641Z,8.20
2022-09-01T15:29:19.148Z,8.50
2022-09-01T15:32:08.619Z,8.63
2022-09-01T15:35:07.600Z,8.20
2022-09-01T15:37:57.735Z,8.37
2022-09-01T15:40:58.322Z,8.50
2022-09-01T15:43:48.554Z,8.37
2022-09-01T15:46:39.270Z,8.60
2022-09-01T15:49:28.740Z,8.50
2022-09-01T15:52:18.858Z,8.77
2022-09-01T15:55:09.083Z,8.50
2022-09-01T15:58:00.731Z,8.67
2022-09-01T16:00:51.663Z,8.47
2022-09-01T16:03:41.337Z,8.40
2022-09-01T16:06:31.387Z,8.60
2022-09-01T16:09:21.989Z,8.70
2022-09-01T16:12:11.357Z,8.40
2022-09-01T16:15:03.737Z,8.43
2022-09-01T16:18:07.873Z,8.53
2022-09-01T16:21:05.357Z,8.43
2022-09-01T16:23:55.058Z,8.60
2022-09-01T16:26:49.208Z,8.67
2022-09-01T16:29:46.752Z,8.50
2022-09-01T16:32:39.301Z,8.80
2022-09-01T16:35:39.941Z,8.80
2022-09-01T16:38:39.379Z,8.43
2022-09-01T16:41:45.539Z,8.60
2022-09-01T16:44:49.926Z,8.60
2022-09-01T16:47:59.834Z,8.60
2022-09-01T16:50:58.602Z,8.87
2022-09-01T16:54:05.884Z,8.70
2022-09-01T16:57:04.078Z,8.70
2022-09-01T16:59:56.925Z,8.80
2022-09-01T17:03:00.036Z,9.00
2022-09-01T17:05:57.543Z,8.70
2022-09-01T17:08:54.913Z,8.57
2022-09-01T17:11:49.680Z,8.90
2022-09-01T17:14:44.650Z,8.70
2022-09-01T17:17:43.647Z,8.50
2022-09-01T17:20:39.843Z,9.07
2022-09-01T17:23:38.063Z,8.60
2022-09-01T17:26:30.898Z,8.70
2022-09-01T17:29:27.218Z,9.00
2022-09-01T17:32:34.745Z,8.53
2022-09-01T17:35:32.165Z,8.50
2022-09-01T17:38:31.857Z,8.90
2022-09-01T17:41:34.579Z,8.50
2022-09-01T17:44:36.628Z,8.70
2022-09-01T17:47:38.011Z,8.43
2022-09-01T17:50:43.097Z,8.67
2022-09-01T17:53:45.132Z,8.50
2022-09-01T17:56:46.532Z,8.50
2022-09-01T17:59:47.506Z,8.70
2022-09-01T18:03:19.013Z,8.60
2022-09-01T18:06:11.891Z,8.70
2022-09-01T18:09:04.324Z,8.60
2022-09-01T18:12:00.504Z,8.87
2022-09-01T18:15:00.960Z,8.53
2022-09-01T18:17:55.940Z,8.60
2022-09-01T18:20:48.170Z,8.70
2022-09-01T18:23:40.901Z,8.50
2022-09-01T18:26:36.284Z,8.57
2022-09-01T18:29:29.676Z,8.73
2022-09-01T18:32:36.332Z,8.67
2022-09-01T18:35:40.626Z,8.60
2022-09-01T18:38:46.034Z,8.60
2022-09-01T18:41:51.702Z,8.50
2022-09-01T18:44:50.569Z,8.77
2022-09-01T18:47:51.026Z,8.70
2022-09-01T18:50:49.002Z,8.83
2022-09-01T18:53:47.658Z,8.43
2022-09-01T18:56:45.919Z,8.53
2022-09-01T19:00:19.170Z,8.77
2022-09-01T19:03:17.485Z,8.50
2022-09-01T19:06:31.619Z,8.83
2022-09-01T19:09:30.741Z,8.80
2022-09-01T19:12:33.211Z,8.73
2022-09-01T19:15:31.772Z,8.50
2022-09-01T19:18:32.080Z,8.80
2022-09-01T19:21:25.132Z,8.73
2022-09-01T19:24:24.574Z,8.50
2022-09-01T19:27:18.907Z,8.70
2022-09-01T19:30:11.085Z,8.77
2022-09-01T19:33:04.041Z,9.00
2022-09-01T19:36:01.790Z,8.60
2022-09-01T19:38:51.824Z,9.03
2022-09-01T19:41:48.234Z,8.77
2022-09-01T19:44:48.354Z,8.70
2022-09-01T19:47:48.753Z,8.83
2022-09-01T19:50:42.925Z,8.63
2022-09-01T19:53:42.265Z,8.80
2022-09-01T19:56:39.841Z,8.57
2022-09-01T19:59:46.494Z,8.70
2022-09-01T20:02:42.785Z,8.30
2022-09-01T20:05:39.684Z,8.60
2022-09-01T20:08:36.248Z,8.50
2022-09-01T20:11:44.685Z,8.70
2022-09-01T20:15:05.657Z,8.90
2022-09-01T20:18:03.182Z,8.40
2022-09-01T20:20:52.607Z,8.80
2022-09-01T20:23:49.958Z,8.50
2022-09-01T20:26:47.224Z,8.47
2022-09-01T20:29:44.574Z,8.30
2022-09-01T20:32:42.885Z,8.60
2022-09-01T20:35:40.569Z,8.80
2022-09-01T20:38:57.852Z,8.53
2022-09-01T20:41:57.493Z,8.63
2022-09-01T20:44:54.313Z,8.83
2022-09-01T20:47:51.390Z,8.70
2022-09-01T20:50:52.100Z,8.90
2022-09-01T20:54:04.729Z,8.60
2022-09-01T20:57:04.503Z,8.87
2022-09-01T20:59:57.723Z,8.90
2022-09-01T21:02:59.460Z,9.00
2022-09-01T21:05:56.934Z,8.90
2022-09-01T21:08:50.777Z,8.60
2022-09-01T21:11:49.459Z,8.90
2022-09-01T21:14:56.437Z,9.07
2022-09-01T21:18:00.472Z,9.07
2022-09-01T21:21:03.232Z,8.70
2022-09-01T21:23:52.626Z,8.90
2022-09-01T21:26:42.011Z,8.73
2022-09-01T21:29:48.037Z,8.70
2022-09-01T21:32:39.080Z,8.63
2022-09-01T21:35:28.554Z,8.67
2022-09-01T21:38:19.728Z,8.70
2022-09-01T21:41:13.071Z,8.80
2022-09-01T21:44:02.954Z,8.60
2022-09-01T21:46:53.294Z,8.67
2022-09-01T21:49:42.722Z,8.60
2022-09-01T21:52:32.176Z,8.73
2022-09-01T21:55:24.148Z,8.70
2022-09-01T21:58:13.755Z,8.60
2022-09-01T22:01:03.334Z,8.80
2022-09-01T22:03:52.753Z,8.60
2022-09-01T22:06:42.483Z,8.70
2022-09-01T22:09:31.957Z,8.70
2022-09-01T22:12:22.805Z,8.60
2022-09-01T22:15:16.139Z,8.60
2022-09-01T22:18:05.834Z,8.60
2022-09-01T22:21:04.172Z,8.40
2022-09-01T22:23:53.645Z,8.70
2022-09-01T22:26:43.614Z,8.73
2022-09-01T22:29:34.405Z,8.80
2022-09-01T22:32:26.914Z,9.00
2022-09-01T22:35:20.353Z,9.20
2022-09-01T22:38:10.406Z,9.10
2022-09-01T22:41:01.113Z,8.90
2022-09-01T22:43:51.084Z,9.10
2022-09-01T22:46:42.257Z,9.40
2022-09-01T22:49:31.665Z,9.10
2022-09-01T22:52:21.246Z,9.10
2022-09-01T22:55:13.656Z,8.90
2022-09-01T22:58:03.126Z,9.00
2022-09-01T23:00:55.891Z,9.07
2022-09-01T23:03:46.978Z,9.40
2022-09-01T23:06:41.331Z,8.80
2022-09-01T23:09:30.857Z,9.10
2022-09-01T23:12:20.460Z,8.90
2022-09-01T23:15:11.289Z,9.00
2022-09-01T23:18:00.826Z,9.03
2022-09-01T23:20:51.719Z,8.80
2022-09-01T23:23:42.022Z,8.97
2022-09-01T23:26:33.294Z,9.40
2022-09-01T23:29:22.687Z,9.00
2022-09-01T23:32:12.132Z,9.13
2022-09-01T23:35:01.738Z,9.00
2022-09-01T23:37:52.458Z,8.77
2022-09-01T23:40:43.139Z,8.83
2022-09-01T23:43:32.481Z,8.70
2022-09-01T23:46:25.363Z,8.90
2022-09-01T23:49:17.726Z,9.20
2022-09-01T23:52:07.708Z,8.80
2022-09-01T23:54:58.680Z,8.90
2022-09-01T23:57:48.004Z,8.70
